createdAt,value
2018-12-20T00:00:20.060Z,99.97
2018-12-20T00:02:49.535Z,99.63
2018-12-20T00:05:18.994Z,99.41
2018-12-20T00:07:49.209Z,99.33
2018-12-20T00:10:18.587Z,99.58
2018-12-20T00:12:48.606Z,99.30
2018-12-20T00:15:18.171Z,99.15
2018-12-20T00:17:51.912Z,99.21
2018-12-20T00:20:23.036Z,99.37
2018-12-20T00:22:53.256Z,99.79
2018-12-20T00:25:22.739Z,99.51
2018-12-20T00:27:52.355Z,99.68
2018-12-20T00:30:21.959Z,99.48
2018-12-20T00:32:51.291Z,100.00
2018-12-20T00:35:20.985Z,100.00
2018-12-20T00:37:50.571Z,100.00
2018-12-20T00:40:19.942Z,100.00
2018-12-20T00:42:49.955Z,100.00
2018-12-20T00:45:19.330Z,100.00
2018-12-20T00:47:49.706Z,100.00
2018-12-20T00:50:20.039Z,100.00
2018-12-20T00:52:49.858Z,100.00
2018-12-20T00:55:19.288Z,100.00
2018-12-20T00:57:48.850Z,100.00
2018-12-20T01:00:19.173Z,100.00
2018-12-20T01:02:55.056Z,100.00
2018-12-20T01:05:19.994Z,100.00
2018-12-20T01:07:49.567Z,100.00
2018-12-20T01:10:19.293Z,100.00
2018-12-20T01:12:49.156Z,100.00
2018-12-20T01:15:18.931Z,100.00
2018-12-20T01:17:48.283Z,100.00
2018-12-20T01:20:17.705Z,100.00
2018-12-20T01:22:47.450Z,99.68
2018-12-20T01:25:16.892Z,100.00
2018-12-20T01:27:46.850Z,99.63
2018-12-20T01:30:16.910Z,100.00
2018-12-20T01:32:46.628Z,99.58
2018-12-20T01:35:16.302Z,99.71
2018-12-20T01:37:45.640Z,99.89
2018-12-20T01:40:15.876Z,99.67
2018-12-20T01:42:45.165Z,99.12
2018-12-20T01:45:15.850Z,98.96
2018-12-20T01:47:45.359Z,99.24
2018-12-20T01:50:14.965Z,98.65
2018-12-20T01:52:44.739Z,98.90
2018-12-20T01:55:14.635Z,98.66
2018-12-20T01:57:44.425Z,99.09
2018-12-20T02:00:14.594Z,99.11
2018-12-20T02:02:44.273Z,99.04
2018-12-20T02:05:13.854Z,99.01
2018-12-20T02:07:43.296Z,98.89
2018-12-20T02:10:13.341Z,98.99
2018-12-20T02:12:43.139Z,98.99
2018-12-20T02:15:12.773Z,98.74
2018-12-20T02:17:42.312Z,98.82
2018-12-20T02:20:11.890Z,99.27
2018-12-20T02:22:41.281Z,98.89
2018-12-20T02:25:11.523Z,98.69
2018-12-20T02:27:41.618Z,99.06
2018-12-20T02:30:11.924Z,99.12
2018-12-20T02:32:41.347Z,99.48
2018-12-20T02:35:11.077Z,99.27
2018-12-20T02:37:40.671Z,99.58
2018-12-20T02:40:10.102Z,99.06
2018-12-20T02:42:39.412Z,98.47
2018-12-20T02:45:10.943Z,97.66
2018-12-20T02:47:41.358Z,98.20
2018-12-20T02:50:12.318Z,98.46
2018-12-20T02:52:42.397Z,98.56
2018-12-20T02:55:11.988Z,98.28
2018-12-20T02:57:41.593Z,98.42
2018-12-20T03:00:11.644Z,98.98
2018-12-20T03:02:41.574Z,99.01
2018-12-20T03:05:11.080Z,99.25
2018-12-20T03:07:40.989Z,99.47
2018-12-20T03:10:10.314Z,99.35
2018-12-20T03:12:39.691Z,98.71
2018-12-20T03:15:09.814Z,98.81
2018-12-20T03:17:39.430Z,98.88
2018-12-20T03:20:08.995Z,98.90
2018-12-20T03:22:38.541Z,98.41
2018-12-20T03:25:08.581Z,98.17
2018-12-20T03:27:38.678Z,98.57
2018-12-20T03:30:08.935Z,98.52
2018-12-20T03:32:38.890Z,97.94
2018-12-20T03:35:09.452Z,97.79
2018-12-20T03:37:39.539Z,97.86
2018-12-20T03:40:09.732Z,98.91
2018-12-20T03:42:39.640Z,98.56
2018-12-20T03:45:09.534Z,99.05
2018-12-20T03:47:39.244Z,98.68
2018-12-20T03:50:09.434Z,98.80
2018-12-20T03:52:38.797Z,98.31
2018-12-20T03:55:08.513Z,98.53
2018-12-20T03:57:38.970Z,98.44
2018-12-20T04:00:08.863Z,97.95
2018-12-20T04:02:38.602Z,98.41
2018-12-20T04:05:08.808Z,98.53
2018-12-20T04:07:38.254Z,99.18
2018-12-20T04:10:08.165Z,99.68
2018-12-20T04:12:38.388Z,99.97
2018-12-20T04:15:09.141Z,99.77
2018-12-20T04:17:38.525Z,99.69
2018-12-20T04:20:07.908Z,99.14
2018-12-20T04:22:37.293Z,99.55
2018-12-20T04:25:07.213Z,99.48
2018-12-20T04:27:41.648Z,99.41
2018-12-20T04:30:11.526Z,99.74
2018-12-20T04:32:40.874Z,100.00
2018-12-20T04:35:10.342Z,100.00
2018-12-20T04:37:39.633Z,100.00
2018-12-20T04:40:10.358Z,99.64
2018-12-20T04:42:39.748Z,99.52
2018-12-20T04:45:09.353Z,99.64
2018-12-20T04:47:38.774Z,99.44
2018-12-20T04:50:08.384Z,99.64
2018-12-20T04:54:02.751Z,99.92
2018-12-20T04:56:32.313Z,100.00
2018-12-20T04:59:02.016Z,99.74
2018-12-20T05:01:32.001Z,100.00
2018-12-20T05:04:02.182Z,99.79
2018-12-20T05:06:31.569Z,99.45
2018-12-20T05:09:00.960Z,99.41
2018-12-20T05:11:31.064Z,98.94
2018-12-20T05:14:00.640Z,99.11
2018-12-20T05:16:30.424Z,99.57
2018-12-20T05:19:00.212Z,99.14
2018-12-20T05:21:29.881Z,99.31
2018-12-20T05:23:59.749Z,99.41
2018-12-20T05:26:29.321Z,99.82
2018-12-20T05:28:58.934Z,100.00
2018-12-20T05:31:28.465Z,100.00
2018-12-20T05:33:58.126Z,100.00
2018-12-20T05:36:27.882Z,100.00
2018-12-20T05:38:58.051Z,100.00
2018-12-20T05:41:27.713Z,99.92
2018-12-20T05:43:57.290Z,99.67
2018-12-20T05:46:26.794Z,99.28
2018-12-20T05:48:56.206Z,99.37
2018-12-20T05:51:26.280Z,99.45
2018-12-20T05:53:56.323Z,99.28
2018-12-20T05:56:26.536Z,99.33
2018-12-20T05:58:55.945Z,99.87
2018-12-20T06:01:25.234Z,99.68
2018-12-20T06:03:55.478Z,100.00
2018-12-20T06:06:25.089Z,100.00
2018-12-20T06:08:54.566Z,100.00
2018-12-20T06:11:24.903Z,100.00
2018-12-20T06:13:55.240Z,100.00
2018-12-20T06:16:24.629Z,100.00
2018-12-20T06:18:54.949Z,100.00
2018-12-20T06:21:25.655Z,100.00
2018-12-20T06:23:55.003Z,100.00
2018-12-20T06:26:25.170Z,100.00
2018-12-20T06:28:54.404Z,100.00
2018-12-20T06:31:23.680Z,100.00
2018-12-20T06:33:52.860Z,100.00
2018-12-20T06:36:22.555Z,100.00
2018-12-20T06:38:52.273Z,100.00
2018-12-20T06:41:23.528Z,100.00
2018-12-20T06:43:53.203Z,100.00
2018-12-20T06:46:23.660Z,100.00
2018-12-20T06:48:52.945Z,100.00
2018-12-20T06:51:22.333Z,100.00
2018-12-20T06:53:52.310Z,100.00
2018-12-20T06:56:22.491Z,100.00
2018-12-20T06:58:52.705Z,100.00
2018-12-20T07:01:22.873Z,100.00
2018-12-20T07:03:53.406Z,100.00
2018-12-20T07:06:23.048Z,100.00
2018-12-20T07:08:52.710Z,100.00
2018-12-20T07:11:22.724Z,100.00
2018-12-20T07:13:53.019Z,100.00
2018-12-20T07:16:29.310Z,100.00
2018-12-20T07:18:53.927Z,100.00
2018-12-20T07:21:23.575Z,100.00
2018-12-20T07:23:52.935Z,100.00
2018-12-20T07:26:22.330Z,100.00
2018-12-20T07:28:53.663Z,100.00
2018-12-20T07:31:23.487Z,100.00
2018-12-20T07:33:52.906Z,100.00
2018-12-20T07:36:22.380Z,100.00
2018-12-20T07:38:51.983Z,100.00
2018-12-20T07:41:22.174Z,100.00
2018-12-20T07:43:52.440Z,100.00
2018-12-20T07:46:21.907Z,100.00
2018-12-20T07:48:51.815Z,100.00
2018-12-20T07:51:21.161Z,100.00
2018-12-20T07:53:50.374Z,100.00
2018-12-20T07:56:19.946Z,100.00
2018-12-20T07:58:50.879Z,100.00
2018-12-20T08:01:21.002Z,100.00
2018-12-20T08:03:50.966Z,99.99
2018-12-20T08:06:21.639Z,99.66
2018-12-20T08:08:51.610Z,99.69
2018-12-20T08:11:20.921Z,98.80
2018-12-20T08:13:50.771Z,99.17
2018-12-20T08:16:21.245Z,99.01
2018-12-20T08:18:51.259Z,98.63
2018-12-20T08:21:21.190Z,97.90
2018-12-20T08:23:52.607Z,98.11
2018-12-20T08:26:22.075Z,98.46
2018-12-20T08:28:52.485Z,98.32
2018-12-20T08:31:23.326Z,98.57
2018-12-20T08:33:53.586Z,98.39
2018-12-20T08:36:23.656Z,97.64
2018-12-20T08:38:54.944Z,97.62
2018-12-20T08:41:25.039Z,97.27
2018-12-20T08:43:55.480Z,96.84
2018-12-20T08:46:25.527Z,96.28
2018-12-20T08:48:56.046Z,96.17
2018-12-20T08:51:25.951Z,95.68
2018-12-20T08:53:55.790Z,94.25
2018-12-20T08:56:25.526Z,93.63
2018-12-20T08:58:55.160Z,93.47
2018-12-20T09:01:24.840Z,92.55
2018-12-20T09:03:54.911Z,90.88
2018-12-20T09:06:24.472Z,90.29
2018-12-20T09:08:54.511Z,89.98
2018-12-20T09:11:25.127Z,89.60
2018-12-20T09:13:55.000Z,88.81
2018-12-20T09:19:42.590Z,86.07
2018-12-20T09:22:13.145Z,84.31
2018-12-20T09:24:42.975Z,83.60
2018-12-20T09:27:12.661Z,80.76
2018-12-20T09:29:44.951Z,80.28
2018-12-20T09:32:15.607Z,76.07
2018-12-20T09:34:45.085Z,74.18
2018-12-20T09:37:15.210Z,71.26
2018-12-20T09:39:44.831Z,67.13
2018-12-20T09:42:14.370Z,64.45
2018-12-20T09:44:44.947Z,65.13
2018-12-20T09:47:20.046Z,67.35
2018-12-20T09:49:49.966Z,68.83
2018-12-20T09:52:20.370Z,69.38
2018-12-20T09:54:49.740Z,69.22
2018-12-20T09:57:19.722Z,70.60
2018-12-20T09:59:50.008Z,69.72
2018-12-20T10:02:19.510Z,70.16
2018-12-20T10:04:49.329Z,70.21
2018-12-20T10:07:20.515Z,71.39
2018-12-20T10:09:50.697Z,72.68
2018-12-20T10:12:19.943Z,72.83
2018-12-20T10:14:50.146Z,72.17
2018-12-20T10:17:20.100Z,72.80
2018-12-20T10:19:50.545Z,72.70
2018-12-20T10:22:20.041Z,72.42
2018-12-20T10:24:49.951Z,72.14
2018-12-20T10:27:19.242Z,72.89
2018-12-20T10:29:49.260Z,70.35
2018-12-20T10:32:19.505Z,69.37
2018-12-20T10:34:48.956Z,68.99
2018-12-20T10:37:18.955Z,67.67
2018-12-20T10:39:48.490Z,67.65
2018-12-20T10:42:17.937Z,65.78
2018-12-20T10:44:47.526Z,63.99
2018-12-20T10:47:28.847Z,64.68
2018-12-20T10:49:53.783Z,63.44
2018-12-20T10:52:23.227Z,65.18
2018-12-20T10:54:52.663Z,65.62
2018-12-20T10:57:22.730Z,65.74
2018-12-20T10:59:52.836Z,64.92
2018-12-20T11:02:27.618Z,64.42
2018-12-20T11:05:06.258Z,64.01
2018-12-20T11:07:41.302Z,64.14
2018-12-20T11:10:16.081Z,65.39
2018-12-20T11:12:49.236Z,66.41
2018-12-20T11:15:27.432Z,65.74
2018-12-20T11:17:57.361Z,66.77
2018-12-20T11:20:27.762Z,66.47
2018-12-20T11:22:57.676Z,65.95
2018-12-20T11:25:27.557Z,67.10
2018-12-20T11:27:57.341Z,67.00
2018-12-20T11:30:27.802Z,66.43
2018-12-20T11:32:59.697Z,66.99
2018-12-20T11:35:29.555Z,67.52
2018-12-20T11:37:59.981Z,68.14
2018-12-20T11:40:31.085Z,67.87
2018-12-20T11:43:01.270Z,67.90
2018-12-20T11:45:32.577Z,68.03
2018-12-20T11:48:02.752Z,69.52
2018-12-20T11:50:32.965Z,69.27
2018-12-20T11:53:03.237Z,67.91
2018-12-20T11:55:33.272Z,68.22
2018-12-20T11:58:04.671Z,68.53
2018-12-20T12:00:37.387Z,68.31
2018-12-20T12:03:07.636Z,67.59
2018-12-20T12:05:37.776Z,67.23
2018-12-20T12:08:07.276Z,67.62
2018-12-20T12:10:36.917Z,68.62
2018-12-20T12:13:07.488Z,67.58
2018-12-20T12:15:38.055Z,66.88
2018-12-20T12:18:07.800Z,66.85
2018-12-20T12:20:37.242Z,67.06
2018-12-20T12:23:08.177Z,66.44
2018-12-20T12:25:37.671Z,64.91
2018-12-20T12:28:08.397Z,64.65
2018-12-20T12:30:37.923Z,63.06
2018-12-20T12:33:07.394Z,64.12
2018-12-20T12:35:36.843Z,63.44
2018-12-20T12:38:07.778Z,64.04
2018-12-20T12:40:37.178Z,63.20
2018-12-20T12:43:07.025Z,64.78
2018-12-20T12:45:37.047Z,64.09
2018-12-20T12:48:07.379Z,64.54
2018-12-20T12:50:36.648Z,64.25
2018-12-20T12:53:06.121Z,64.85
2018-12-20T12:55:35.822Z,65.46
2018-12-20T12:58:05.272Z,65.92
2018-12-20T13:00:35.350Z,65.98
2018-12-20T13:03:05.548Z,66.09
2018-12-20T13:05:35.132Z,65.76
2018-12-20T13:08:04.990Z,65.06
2018-12-20T13:10:35.248Z,66.17
2018-12-20T13:13:05.537Z,66.58
2018-12-20T13:15:35.227Z,66.42
2018-12-20T13:18:13.625Z,65.07
2018-12-20T13:20:37.045Z,64.91
2018-12-20T13:23:06.404Z,65.03
2018-12-20T13:25:36.391Z,65.17
2018-12-20T13:28:06.611Z,64.72
2018-12-20T13:30:36.247Z,64.60
2018-12-20T13:33:05.969Z,64.59
2018-12-20T13:35:35.400Z,64.67
2018-12-20T13:38:05.332Z,65.55
2018-12-20T13:40:35.602Z,64.72
2018-12-20T13:43:05.301Z,64.75
2018-12-20T13:45:35.927Z,64.92
2018-12-20T13:48:05.353Z,65.01
2018-12-20T13:50:35.402Z,65.30
2018-12-20T13:53:04.743Z,65.78
2018-12-20T13:55:34.322Z,65.99
2018-12-20T13:58:04.000Z,66.69
2018-12-20T14:00:33.319Z,66.42
2018-12-20T14:03:03.427Z,66.46
2018-12-20T14:05:33.607Z,65.65
2018-12-20T14:08:03.757Z,66.67
2018-12-20T14:10:33.368Z,66.95
2018-12-20T14:13:03.427Z,66.89
2018-12-20T14:15:33.721Z,67.36
2018-12-20T14:18:03.788Z,66.82
2018-12-20T14:20:33.543Z,66.32
2018-12-20T14:23:02.952Z,66.59
2018-12-20T14:25:33.253Z,67.21
2018-12-20T14:28:02.617Z,68.11
2018-12-20T14:30:32.303Z,68.94
2018-12-20T14:33:02.295Z,68.92
2018-12-20T14:35:32.356Z,69.58
2018-12-20T14:38:03.754Z,69.98
2018-12-20T14:40:33.729Z,69.75
2018-12-20T14:43:04.674Z,69.73
2018-12-20T14:45:34.674Z,69.71
2018-12-20T14:48:07.171Z,70.52
2018-12-20T14:50:37.687Z,70.15
2018-12-20T14:53:07.648Z,71.02
2018-12-20T14:55:37.712Z,71.27
2018-12-20T14:58:07.847Z,70.91
2018-12-20T15:00:37.841Z,71.15
2018-12-20T15:03:08.526Z,71.30
2018-12-20T15:05:38.631Z,71.39
2018-12-20T15:08:08.810Z,71.48
2018-12-20T15:10:39.077Z,71.67
2018-12-20T15:13:09.377Z,72.34
2018-12-20T15:15:39.663Z,72.55
2018-12-20T15:18:09.583Z,72.91
2018-12-20T15:20:40.734Z,72.34
2018-12-20T15:23:10.766Z,72.71
2018-12-20T15:25:40.853Z,73.30
2018-12-20T15:28:13.017Z,73.83
2018-12-20T15:30:43.427Z,73.63
2018-12-20T15:33:13.721Z,75.07
2018-12-20T15:35:43.906Z,74.63
2018-12-20T15:38:14.072Z,75.34
2018-12-20T15:40:45.151Z,75.49
2018-12-20T15:43:15.428Z,75.83
2018-12-20T15:45:45.766Z,76.44
2018-12-20T15:48:16.972Z,76.62
2018-12-20T15:50:47.917Z,78.34
2018-12-20T15:53:18.328Z,79.39
2018-12-20T15:55:48.434Z,79.41
2018-12-20T15:58:20.079Z,79.21
2018-12-20T16:00:49.858Z,78.84
2018-12-20T16:03:19.797Z,78.61
2018-12-20T16:05:49.168Z,79.50
2018-12-20T16:08:19.007Z,80.58
2018-12-20T16:10:48.522Z,80.17
2018-12-20T16:13:18.563Z,81.26
2018-12-20T16:15:48.205Z,82.00
2018-12-20T16:18:18.076Z,82.02
2018-12-20T16:20:49.689Z,82.27
2018-12-20T16:23:19.493Z,83.15
2018-12-20T16:25:49.284Z,81.92
2018-12-20T16:28:18.854Z,83.42
2018-12-20T16:30:49.134Z,83.33
2018-12-20T16:33:19.057Z,83.36
2018-12-20T16:35:48.556Z,82.99
2018-12-20T16:38:18.717Z,82.54
2018-12-20T16:40:48.891Z,82.80
2018-12-20T16:43:18.298Z,82.70
2018-12-20T16:45:48.092Z,82.76
2018-12-20T16:48:22.592Z,82.55
2018-12-20T16:50:52.512Z,82.33
2018-12-20T16:53:21.853Z,83.15
2018-12-20T16:55:51.429Z,83.11
2018-12-20T16:58:21.098Z,83.57
2018-12-20T17:00:51.227Z,83.98
2018-12-20T17:03:20.677Z,83.87
2018-12-20T17:05:50.097Z,83.67
2018-12-20T17:08:19.512Z,84.82
2018-12-20T17:10:49.168Z,84.18
2018-12-20T17:13:19.349Z,84.92
2018-12-20T17:15:48.969Z,84.96
2018-12-20T17:18:19.077Z,85.17
2018-12-20T17:20:49.722Z,85.42
2018-12-20T17:23:19.206Z,85.53
2018-12-20T17:25:48.673Z,85.51
2018-12-20T17:28:18.767Z,85.51
2018-12-20T17:30:48.407Z,86.08
2018-12-20T17:33:18.110Z,86.28
2018-12-20T17:35:47.837Z,85.66
2018-12-20T17:38:17.452Z,85.91
2018-12-20T17:40:48.114Z,85.94
2018-12-20T17:43:17.781Z,85.68
2018-12-20T17:45:48.930Z,85.89
2018-12-20T17:48:18.547Z,85.82
2018-12-20T17:50:48.532Z,85.96
2018-12-20T17:53:17.957Z,85.68
2018-12-20T17:55:47.806Z,85.78
2018-12-20T17:58:18.104Z,86.06
2018-12-20T18:00:48.286Z,86.13
2018-12-20T18:03:18.520Z,86.09
2018-12-20T18:05:48.322Z,86.31
2018-12-20T18:08:17.983Z,86.17
2018-12-20T18:10:47.627Z,86.40
2018-12-20T18:13:17.252Z,85.78
2018-12-20T18:19:38.948Z,84.92
2018-12-20T18:22:06.032Z,84.67
2018-12-20T18:24:35.480Z,84.63
2018-12-20T18:27:05.252Z,83.81
2018-12-20T18:29:34.773Z,84.06
2018-12-20T18:32:04.794Z,83.77
2018-12-20T18:34:34.378Z,83.46
2018-12-20T18:37:04.472Z,82.87
2018-12-20T18:39:34.611Z,82.11
2018-12-20T18:42:04.612Z,82.35
2018-12-20T18:44:34.939Z,82.34
2018-12-20T18:47:04.517Z,82.72
2018-12-20T18:49:34.062Z,82.90
2018-12-20T18:52:03.680Z,82.79
2018-12-20T18:54:33.437Z,83.07
2018-12-20T18:57:03.061Z,83.15
2018-12-20T18:59:32.668Z,83.21
2018-12-20T19:02:03.307Z,83.25
2018-12-20T19:04:32.702Z,82.32
2018-12-20T19:07:02.763Z,82.65
2018-12-20T19:09:32.191Z,82.36
2018-12-20T19:12:02.038Z,82.41
2018-12-20T19:14:31.723Z,81.67
2018-12-20T19:17:01.555Z,81.97
2018-12-20T19:19:31.821Z,81.32
2018-12-20T19:22:02.254Z,81.82
2018-12-20T19:24:33.429Z,81.97
2018-12-20T19:27:03.337Z,82.19
2018-12-20T19:29:32.825Z,83.10
2018-12-20T19:32:02.601Z,82.70
2018-12-20T19:34:32.928Z,83.53
2018-12-20T19:37:02.807Z,84.00
2018-12-20T19:39:32.346Z,84.43
2018-12-20T19:42:07.263Z,84.98
2018-12-20T19:44:37.120Z,85.36
2018-12-20T19:47:06.975Z,85.04
2018-12-20T19:49:36.436Z,85.26
2018-12-20T19:52:06.378Z,85.73
2018-12-20T19:54:36.083Z,85.67
2018-12-20T19:57:05.688Z,85.65
2018-12-20T19:59:38.765Z,85.44
2018-12-20T20:02:06.999Z,85.96
2018-12-20T20:04:37.391Z,86.22
2018-12-20T20:07:08.378Z,86.32
2018-12-20T20:09:38.717Z,86.58
2018-12-20T20:12:09.080Z,87.15
2018-12-20T20:14:39.233Z,87.33
2018-12-20T20:17:08.853Z,87.37
2018-12-20T20:19:38.512Z,87.94
2018-12-20T20:22:08.698Z,88.35
2018-12-20T20:24:38.986Z,87.69
2018-12-20T20:27:08.852Z,88.27
2018-12-20T20:29:39.439Z,87.84
2018-12-20T20:32:09.437Z,88.19
2018-12-20T20:34:40.625Z,88.39
2018-12-20T20:37:10.225Z,88.00
2018-12-20T20:39:39.984Z,88.65
2018-12-20T20:42:09.519Z,88.56
2018-12-20T20:44:39.444Z,88.51
2018-12-20T20:47:09.748Z,88.65
2018-12-20T20:49:39.743Z,89.27
2018-12-20T20:52:09.201Z,89.64
2018-12-20T20:54:39.382Z,89.15
2018-12-20T20:57:09.204Z,89.02
2018-12-20T20:59:38.754Z,89.05
2018-12-20T21:02:09.214Z,88.82
2018-12-20T21:04:39.045Z,88.95
2018-12-20T21:07:08.563Z,89.10
2018-12-20T21:09:38.139Z,88.62
2018-12-20T21:12:07.759Z,89.13
2018-12-20T21:14:39.677Z,90.01
2018-12-20T21:17:09.875Z,90.00
2018-12-20T21:19:39.291Z,89.94
2018-12-20T21:22:08.795Z,89.88
2018-12-20T21:24:38.311Z,89.62
2018-12-20T21:27:07.821Z,90.17
2018-12-20T21:29:38.199Z,90.61
2018-12-20T21:32:07.615Z,90.41
2018-12-20T21:34:37.183Z,91.39
2018-12-20T21:37:06.793Z,91.91
2018-12-20T21:39:36.330Z,92.40
2018-12-20T21:42:05.764Z,91.66
2018-12-20T21:44:35.401Z,91.97
2018-12-20T21:47:05.180Z,90.39
2018-12-20T21:49:34.673Z,91.24
2018-12-20T21:52:06.031Z,91.40
2018-12-20T21:54:36.179Z,91.61
2018-12-20T21:57:06.403Z,92.28
2018-12-20T21:59:36.591Z,93.15
2018-12-20T22:02:06.171Z,93.44
2018-12-20T22:04:35.921Z,93.22
2018-12-20T22:07:06.240Z,93.75
2018-12-20T22:09:35.610Z,93.80
2018-12-20T22:12:06.514Z,93.20
2018-12-20T22:14:36.505Z,93.15
2018-12-20T22:17:06.057Z,93.85
2018-12-20T22:19:35.510Z,93.55
2018-12-20T22:22:05.715Z,93.62
2018-12-20T22:24:35.635Z,93.53
2018-12-20T22:27:05.011Z,93.71
2018-12-20T22:29:34.543Z,93.62
2018-12-20T22:32:04.276Z,93.57
2018-12-20T22:34:34.474Z,93.32
2018-12-20T22:37:04.662Z,93.93
2018-12-20T22:39:34.178Z,93.94
2018-12-20T22:42:04.223Z,93.84
2018-12-20T22:44:34.489Z,93.70
2018-12-20T22:47:04.499Z,93.56
2018-12-20T22:49:34.841Z,93.69
2018-12-20T22:52:04.750Z,93.43
2018-12-20T22:54:35.024Z,93.51
2018-12-20T22:57:04.332Z,93.25
2018-12-20T22:59:33.656Z,92.59
2018-12-20T23:02:03.658Z,92.96
2018-12-20T23:04:33.840Z,93.39
2018-12-20T23:07:03.221Z,93.53
2018-12-20T23:09:33.530Z,92.80
2018-12-20T23:12:03.505Z,93.25
2018-12-20T23:14:33.020Z,92.90
2018-12-20T23:17:02.923Z,92.54
2018-12-20T23:19:32.366Z,92.66
2018-12-20T23:22:02.523Z,92.41
2018-12-20T23:24:32.234Z,92.57
2018-12-20T23:27:01.930Z,92.70
2018-12-20T23:29:31.363Z,92.51
2018-12-20T23:32:01.160Z,92.60
2018-12-20T23:34:30.477Z,92.44
2018-12-20T23:36:59.770Z,92.73
2018-12-20T23:39:29.164Z,92.35
2018-12-20T23:41:58.672Z,92.18
2018-12-20T23:44:28.264Z,92.24
2018-12-20T23:46:58.450Z,91.98
2018-12-20T23:49:28.675Z,92.11
2018-12-20T23:51:58.045Z,92.29
2018-12-20T23:54:28.009Z,92.02
2018-12-20T23:56:58.066Z,92.32
2018-12-20T23:59:28.456Z,91.88
